Airfield :
LOGIN :

Register | Disclaimer

   EN    FR    IT 

 










Legend :    VFR   Marginal VFR   IFR   Intensive IFR   Very Intensive IFR
Visi :
Ceiling :
>= 8 km
>= 3000ft
5 to 8 km
1000 to 3000 ft
1500m to 5 km
500 to 1000 ft
800 to 1500m
200 to 500 ft
< 800m
< 200 ft
Symbols :   Thunderstorms  Fog  Heavy snow  Heavy precipitations  Wind > 20 kt
SIGMETs :     Misc.  Thunderstorms  Icing  Turbulence  Mountain Waves  Volcanic Ashes







- Airport Elevation : 267 ft


EGDR - Culdrose Navy

CURRENT METAR :
  • 210925Z 21004KT 2500 -DZ FEW000 SCT002 OVC004 09/09 Q1035 AMB TEMPO 500 -DZ FEW000 BKN001 RED

EXPIRED METARs :
  • 210850Z 20005KT 2000 -DZ FEW000 SCT002 OVC004 09/09 Q1034 AMB TEMPO 500 -DZ FEW000 BKN001 RED
  • 210819Z 22004KT 3000 BR FEW000 BKN002 OVC004 09/09 Q1034 AMB TEMPO 500 -DZ FEW000 BKN001 RED
  • 210750Z 22003KT 3000 BR FEW000 SCT002 BKN006 09/09 Q1034 REDZ AMB TEMPO 500 -DZ FEW000 BKN001 RED
  • 210725Z 21004KT 1000 BR FEW000 SCT001 BKN002 09/09 Q1034 RED NOSIG
  • 210650Z 19004KT 0500 -DZ FEW000 SCT001 OVC002 09/09 Q1034 RED NOSIG

TAF TAF EGDR
Valid from the 21 at 09:00 until the 21 at 18:00 UTC


210814Z 2109/2118 22005KT 3000 BR FEW001 SCT002 BKN006
TEMPO 2109/2112 0500 -DZ FG FEW000 SCT001
TEMPO 2112/2118 5000 BR SCT004
PROB40
TEMPO 2112/2118 FEW004 SCT006
No reported NOTAMs for that airfield.



MET'MAP, your aeronautical weather chart ! - Copyright ORBIFLY December 2007 - Disclaimer

ORBIFLY MET'MAP TEAM :

Programming & Development : Alexandra Zaïnal
Concept & Development : Baudouin d'Aumeries
Co-Development & Prog : Marc-Olivier Méhu
Technical & hardware support : Manuel Goepfert

Contact : metmap@orbifly.com




SOURCES & CREDITS :

   NOAA